Time,TemperatureF,DewpointF,PressureIn,WindDirection,WindDirectionDegrees,WindSpeedMPH,WindSpeedGustMPH,Humidity,HourlyPrecipIn,Conditions,Clouds,dailyrainin,SoftwareType,DateUTC
2013-05-23 00:03:00,52.7,51.0,29.78,NNW,345,2.2,3.9,94,0.00,,,0.00,WUHU216HW,2013-05-23 05:03:00,
2013-05-23 00:13:00,52.5,50.8,29.78,North,349,2.4,5.2,94,0.00,,,0.00,WUHU216HW,2013-05-23 05:13:00,
2013-05-23 00:23:00,52.2,49.9,29.79,North,354,3.2,5.0,92,0.00,,,0.00,WUHU216HW,2013-05-23 05:23:00,
2013-05-23 00:33:00,52.0,49.7,29.79,North,358,2.3,3.5,92,0.00,,,0.00,WUHU216HW,2013-05-23 05:33:00,
2013-05-23 00:43:00,51.8,49.5,29.79,North,356,2.2,3.2,92,0.00,,,0.00,WUHU216HW,2013-05-23 05:43:00,
2013-05-23 00:53:00,51.6,49.6,29.79,North,0,2.4,4.8,93,0.00,,,0.00,WUHU216HW,2013-05-23 05:53:00,
2013-05-23 01:03:00,51.4,49.4,29.79,North,355,2.7,5.5,93,0.00,,,0.00,WUHU216HW,2013-05-23 06:03:00,
2013-05-23 01:14:00,51.3,49.3,29.79,North,356,2.3,4.6,93,0.00,,,0.00,WUHU216HW,2013-05-23 06:14:00,
2013-05-23 01:24:00,51.1,49.1,29.80,North,2,3.3,5.5,93,0.00,,,0.00,WUHU216HW,2013-05-23 06:24:00,
2013-05-23 01:34:00,50.9,48.9,29.80,NNE,19,3.4,6.8,93,0.00,,,0.00,WUHU216HW,2013-05-23 06:34:00,
2013-05-23 01:44:00,50.9,48.9,29.80,NNE,22,2.9,5.5,93,0.02,,,0.02,WUHU216HW,2013-05-23 06:44:00,
2013-05-23 01:54:00,50.9,49.2,29.80,North,3,2.7,5.5,94,0.05,,,0.05,WUHU216HW,2013-05-23 06:54:00,
2013-05-23 02:04:00,50.9,49.2,29.80,NNE,14,2.5,5.9,94,0.06,,,0.06,WUHU216HW,2013-05-23 07:04:00,
2013-05-23 02:14:00,50.7,49.0,29.80,North,3,3.4,4.8,94,0.08,,,0.08,WUHU216HW,2013-05-23 07:14:00,
2013-05-23 02:24:00,50.7,49.0,29.80,North,9,2.5,4.1,94,0.08,,,0.08,WUHU216HW,2013-05-23 07:24:00,
2013-05-23 02:34:00,50.7,49.0,29.80,North,7,3.3,5.9,94,0.10,,,0.10,WUHU216HW,2013-05-23 07:34:00,
2013-05-23 02:44:00,50.5,48.8,29.80,North,355,3.6,4.8,94,0.08,,,0.10,WUHU216HW,2013-05-23 07:44:00,
2013-05-23 02:54:00,50.5,48.8,29.81,North,11,2.4,3.5,94,0.06,,,0.11,WUHU216HW,2013-05-23 07:54:00,
2013-05-23 03:04:00,50.5,48.8,29.81,North,6,2.9,5.9,94,0.05,,,0.12,WUHU216HW,2013-05-23 08:04:00,
2013-05-23 03:14:00,50.5,48.8,29.81,North,358,2.6,4.4,94,0.05,,,0.13,WUHU216HW,2013-05-23 08:14:00,
2013-05-23 03:24:00,50.5,48.8,29.82,North,8,3.2,6.6,94,0.04,,,0.13,WUHU216HW,2013-05-23 08:24:00,
2013-05-23 03:34:00,50.5,48.8,29.82,North,354,3.6,5.7,94,0.03,,,0.13,WUHU216HW,2013-05-23 08:34:00,
2013-05-23 03:44:00,50.4,48.1,29.82,North,7,6.1,11.8,92,0.03,,,0.14,WUHU216HW,2013-05-23 08:44:00,
2013-05-23 03:54:00,50.0,47.7,29.83,NNE,15,6.4,11.2,92,0.02,,,0.14,WUHU216HW,2013-05-23 08:54:00,
2013-05-23 04:04:00,49.8,47.5,29.84,NNE,29,6.2,10.7,92,0.02,,,0.14,WUHU216HW,2013-05-23 09:04:00,
2013-05-23 04:14:00,49.6,47.3,29.84,North,5,4.1,8.3,92,0.02,,,0.15,WUHU216HW,2013-05-23 09:14:00,
2013-05-23 04:24:00,49.5,47.2,29.84,North,10,4.4,8.5,92,0.03,,,0.16,WUHU216HW,2013-05-23 09:24:00,
2013-05-23 04:34:00,49.3,47.0,29.85,North,359,4.2,6.6,92,0.03,,,0.16,WUHU216HW,2013-05-23 09:34:00,
2013-05-23 04:44:00,49.3,47.0,29.85,North,355,4.4,7.8,92,0.03,,,0.17,WUHU216HW,2013-05-23 09:44:00,
2013-05-23 04:54:00,49.1,46.5,29.86,North,4,4.8,6.4,91,0.03,,,0.17,WUHU216HW,2013-05-23 09:54:00,
2013-05-23 05:04:00,48.9,46.3,29.86,NE,34,7.0,17.3,91,0.03,,,0.17,WUHU216HW,2013-05-23 10:04:00,
2013-05-23 05:14:00,48.7,46.1,29.87,NNE,12,4.9,6.6,91,0.02,,,0.17,WUHU216HW,2013-05-23 10:14:00,
2013-05-23 05:24:00,48.2,45.7,29.87,NNE,19,7.1,13.7,91,0.01,,,0.17,WUHU216HW,2013-05-23 10:24:00,
2013-05-23 05:34:00,48.2,45.7,29.88,NE,35,10.4,17.1,91,0.00,,,0.17,WUHU216HW,2013-05-23 10:34:00,
2013-05-23 05:44:00,48.2,45.7,29.89,NNE,17,7.4,14.6,91,0.00,,,0.17,WUHU216HW,2013-05-23 10:44:00,
2013-05-23 05:54:00,47.7,45.4,29.89,NNE,19,5.3,9.1,92,0.01,,,0.18,WUHU216HW,2013-05-23 10:54:00,
2013-05-23 06:04:00,47.5,45.5,29.90,NNE,17,5.6,12.5,93,0.01,,,0.18,WUHU216HW,2013-05-23 11:04:00,
2013-05-23 06:14:00,47.3,45.0,29.90,NNE,12,6.1,13.1,92,0.01,,,0.18,WUHU216HW,2013-05-23 11:14:00,
2013-05-23 06:24:00,47.1,44.9,29.92,NNE,14,6.6,13.1,92,0.01,,,0.18,WUHU216HW,2013-05-23 11:24:00,
2013-05-23 06:34:00,46.9,44.7,29.92,North,0,5.4,12.5,92,0.01,,,0.18,WUHU216HW,2013-05-23 11:34:00,
2013-05-23 06:44:00,46.9,44.7,29.92,North,1,5.1,7.0,92,0.01,,,0.18,WUHU216HW,2013-05-23 11:44:00,
2013-05-23 06:54:00,46.4,43.9,29.93,North,353,5.5,7.8,91,0.00,,,0.18,WUHU216HW,2013-05-23 11:54:00,
2013-05-23 07:04:00,46.0,43.5,29.94,North,2,5.7,7.3,91,0.00,,,0.18,WUHU216HW,2013-05-23 12:04:00,
2013-05-23 07:14:00,45.9,43.4,29.95,NNW,339,6.0,8.7,91,0.00,,,0.18,WUHU216HW,2013-05-23 12:14:00,
2013-05-23 07:24:00,45.3,42.8,29.96,North,355,5.9,7.5,91,0.00,,,0.18,WUHU216HW,2013-05-23 12:24:00,
2013-05-23 07:34:00,45.3,42.8,29.96,North,356,7.3,9.8,91,0.00,,,0.18,WUHU216HW,2013-05-23 12:34:00,
2013-05-23 07:44:00,45.1,42.6,29.97,North,352,7.6,14.4,91,0.00,,,0.18,WUHU216HW,2013-05-23 12:44:00,
2013-05-23 07:54:00,45.1,42.6,29.97,North,5,4.1,5.5,91,0.00,,,0.18,WUHU216HW,2013-05-23 12:54:00,
2013-05-23 08:04:00,44.8,42.3,29.98,North,350,6.1,9.4,91,0.00,,,0.18,WUHU216HW,2013-05-23 13:04:00,
2013-05-23 08:14:00,44.8,42.3,29.99,North,7,5.0,7.8,91,0.00,,,0.18,WUHU216HW,2013-05-23 13:14:00,
2013-05-23 08:24:00,44.4,41.9,29.99,North,352,5.1,7.3,91,0.00,,,0.18,WUHU216HW,2013-05-23 13:24:00,
2013-05-23 08:34:00,44.4,41.9,30.00,North,357,5.6,11.2,91,0.00,,,0.18,WUHU216HW,2013-05-23 13:34:00,
2013-05-23 08:44:00,43.9,41.1,30.00,North,352,7.6,11.8,90,0.00,,,0.18,WUHU216HW,2013-05-23 13:44:00,
2013-05-23 08:54:00,43.7,40.9,30.01,North,359,7.5,12.3,90,0.00,,,0.18,WUHU216HW,2013-05-23 13:54:00,
2013-05-23 09:04:00,43.5,40.4,30.02,NNW,347,7.8,11.4,89,0.00,,,0.18,WUHU216HW,2013-05-23 14:04:00,
2013-05-23 09:14:00,43.5,40.4,30.02,North,359,7.3,12.5,89,0.00,,,0.18,WUHU216HW,2013-05-23 14:14:00,
2013-05-23 09:24:00,43.9,40.8,30.02,North,353,6.1,8.3,89,0.00,,,0.18,WUHU216HW,2013-05-23 14:24:00,
2013-05-23 09:34:00,43.9,40.8,30.03,North,0,6.5,12.1,89,0.00,,,0.18,WUHU216HW,2013-05-23 14:34:00,
2013-05-23 09:44:00,44.1,41.0,30.03,North,2,6.4,8.7,89,0.00,,,0.18,WUHU216HW,2013-05-23 14:44:00,
2013-05-23 09:54:00,43.9,40.5,30.04,North,350,6.3,9.4,88,0.00,,,0.18,WUHU216HW,2013-05-23 14:54:00,
2013-05-23 10:04:00,43.9,40.5,30.04,NNW,344,6.9,11.4,88,0.00,,,0.18,WUHU216HW,2013-05-23 15:04:00,
2013-05-23 10:14:00,44.1,40.7,30.05,NNW,344,5.3,7.5,88,0.00,,,0.18,WUHU216HW,2013-05-23 15:14:00,
2013-05-23 10:24:00,44.6,40.9,30.05,North,355,5.7,8.9,87,0.00,,,0.18,WUHU216HW,2013-05-23 15:24:00,
2013-05-23 10:34:00,44.8,40.6,30.06,North,350,7.3,10.0,85,0.00,,,0.18,WUHU216HW,2013-05-23 15:34:00,
2013-05-23 10:45:00,44.8,40.3,30.06,North,2,7.0,9.4,84,0.00,,,0.18,WUHU216HW,2013-05-23 15:45:00,
2013-05-23 10:55:00,45.5,40.9,30.06,North,354,5.5,7.5,84,0.00,,,0.18,WUHU216HW,2013-05-23 15:55:00,
2013-05-23 11:05:00,46.9,41.4,30.07,North,355,6.5,12.8,81,0.00,,,0.18,WUHU216HW,2013-05-23 16:05:00,
2013-05-23 11:15:00,46.6,40.8,30.07,North,357,6.4,9.1,80,0.00,,,0.18,WUHU216HW,2013-05-23 16:15:00,
2013-05-23 11:25:00,46.9,41.1,30.08,NNE,18,7.4,10.5,80,0.00,,,0.18,WUHU216HW,2013-05-23 16:25:00,
2013-05-23 11:35:00,47.7,41.5,30.08,North,358,8.4,11.2,79,0.00,,,0.18,WUHU216HW,2013-05-23 16:35:00,
2013-05-23 11:45:00,47.8,41.6,30.08,North,358,6.6,13.5,79,0.00,,,0.18,WUHU216HW,2013-05-23 16:45:00,
2013-05-23 11:55:00,48.2,41.4,30.09,NNE,17,6.2,10.9,77,0.00,,,0.18,WUHU216HW,2013-05-23 16:55:00,
2013-05-23 12:05:00,48.0,40.5,30.09,North,352,5.7,8.0,75,0.00,,,0.18,WUHU216HW,2013-05-23 17:05:00,
2013-05-23 12:15:00,48.2,41.4,30.10,NNE,24,11.2,20.5,77,0.00,,,0.18,WUHU216HW,2013-05-23 17:15:00,
2013-05-23 12:25:00,50.0,42.5,30.09,NNE,13,7.3,11.2,75,0.00,,,0.18,WUHU216HW,2013-05-23 17:25:00,
2013-05-23 12:35:00,50.0,41.8,30.10,NNE,24,9.4,14.6,73,0.00,,,0.18,WUHU216HW,2013-05-23 17:35:00,
2013-05-23 12:45:00,50.4,42.2,30.10,ENE,66,9.3,12.1,73,0.00,,,0.18,WUHU216HW,2013-05-23 17:45:00,
2013-05-23 12:55:00,50.7,41.4,30.10,North,353,6.6,11.6,70,0.00,,,0.18,WUHU216HW,2013-05-23 17:55:00,
2013-05-23 13:05:00,51.8,42.8,30.10,NNE,19,5.5,11.4,71,0.00,,,0.18,WUHU216HW,2013-05-23 18:05:00,
2013-05-23 13:15:00,52.2,42.4,30.11,North,3,8.3,14.6,69,0.00,,,0.18,WUHU216HW,2013-05-23 18:15:00,
2013-05-23 13:25:00,53.1,43.7,30.10,North,3,5.8,7.8,70,0.00,,,0.18,WUHU216HW,2013-05-23 18:25:00,
2013-05-23 13:35:00,54.0,43.0,30.11,NNW,348,5.1,8.5,66,0.00,,,0.18,WUHU216HW,2013-05-23 18:35:00,
2013-05-23 13:45:00,53.4,43.2,30.11,NNW,341,5.2,7.0,68,0.00,,,0.18,WUHU216HW,2013-05-23 18:45:00,
2013-05-23 13:55:00,54.7,43.7,30.11,North,1,4.9,7.8,66,0.00,,,0.18,WUHU216HW,2013-05-23 18:55:00,
2013-05-23 14:05:00,54.0,43.0,30.12,North,2,6.6,9.8,66,0.00,,,0.18,WUHU216HW,2013-05-23 19:05:00,
2013-05-23 14:15:00,52.9,43.1,30.12,North,358,5.6,9.4,69,0.00,,,0.18,WUHU216HW,2013-05-23 19:15:00,
2013-05-23 14:25:00,52.7,43.3,30.13,North,351,5.2,7.0,70,0.00,,,0.18,WUHU216HW,2013-05-23 19:25:00,
2013-05-23 14:35:00,52.7,43.7,30.13,North,353,4.9,7.3,71,0.00,,,0.18,WUHU216HW,2013-05-23 19:35:00,
2013-05-23 14:45:00,52.9,43.5,30.13,NNW,339,6.1,10.0,70,0.00,,,0.18,WUHU216HW,2013-05-23 19:45:00,
2013-05-23 14:55:00,53.2,43.8,30.13,North,356,4.6,5.7,70,0.00,,,0.18,WUHU216HW,2013-05-23 19:55:00,
2013-05-23 15:05:00,52.9,43.1,30.14,North,6,5.6,9.1,69,0.00,,,0.18,WUHU216HW,2013-05-23 20:05:00,
2013-05-23 15:15:00,52.9,43.5,30.14,North,4,4.2,5.5,70,0.00,,,0.18,WUHU216HW,2013-05-23 20:15:00,
2013-05-23 15:25:00,53.1,43.3,30.14,North,3,4.6,7.0,69,0.00,,,0.18,WUHU216HW,2013-05-23 20:25:00,
2013-05-23 15:35:00,53.6,43.8,30.14,NNE,22,5.4,9.8,69,0.00,,,0.18,WUHU216HW,2013-05-23 20:35:00,
2013-05-23 15:45:00,53.2,43.0,30.14,North,2,5.8,9.8,68,0.00,,,0.18,WUHU216HW,2013-05-23 20:45:00,
2013-05-23 15:55:00,53.6,43.4,30.14,North,11,5.9,10.3,68,0.00,,,0.18,WUHU216HW,2013-05-23 20:55:00,
2013-05-23 16:05:00,54.3,42.5,30.14,North,355,5.0,9.1,64,0.00,,,0.18,WUHU216HW,2013-05-23 21:05:00,
2013-05-23 16:15:00,54.0,42.6,30.14,North,2,5.4,8.3,65,0.00,,,0.18,WUHU216HW,2013-05-23 21:15:00,
2013-05-23 16:25:00,55.0,42.8,30.14,North,0,6.0,7.3,63,0.00,,,0.18,WUHU216HW,2013-05-23 21:25:00,
2013-05-23 16:35:00,54.5,41.9,30.15,North,0,4.7,7.0,62,0.00,,,0.18,WUHU216HW,2013-05-23 21:35:00,
2013-05-23 16:45:00,54.1,41.1,30.15,NNW,344,5.1,7.0,61,0.00,,,0.18,WUHU216HW,2013-05-23 21:45:00,
2013-05-23 16:55:00,54.5,41.9,30.16,North,359,4.0,8.0,62,0.00,,,0.18,WUHU216HW,2013-05-23 21:55:00,
2013-05-23 17:05:00,54.3,41.7,30.16,North,352,3.6,6.4,62,0.00,,,0.18,WUHU216HW,2013-05-23 22:05:00,
2013-05-23 17:15:00,54.3,40.8,30.17,North,356,3.7,5.9,60,0.00,,,0.18,WUHU216HW,2013-05-23 22:15:00,
2013-05-23 17:25:00,55.0,39.7,30.16,NNE,18,5.3,13.7,56,0.00,,,0.18,WUHU216HW,2013-05-23 22:25:00,
2013-05-23 17:35:00,54.9,37.6,30.17,North,359,6.3,13.9,52,0.00,,,0.18,WUHU216HW,2013-05-23 22:35:00,
2013-05-23 17:45:00,54.9,39.1,30.18,ENE,58,6.8,10.0,55,0.00,,,0.18,WUHU216HW,2013-05-23 22:45:00,
2013-05-23 17:55:00,55.0,38.2,30.18,North,6,3.8,6.4,53,0.00,,,0.18,WUHU216HW,2013-05-23 22:55:00,
2013-05-23 18:05:00,54.9,37.1,30.15,North,350,4.3,6.4,51,0.00,,,0.18,WUHU216HW,2013-05-23 23:05:00,
2013-05-23 18:15:00,55.0,36.7,30.16,NNE,17,4.8,8.0,50,0.00,,,0.18,WUHU216HW,2013-05-23 23:15:00,
2013-05-23 18:25:00,54.7,35.9,30.16,NNE,19,5.4,11.8,49,0.00,,,0.18,WUHU216HW,2013-05-23 23:25:00,
2013-05-23 18:35:00,54.7,36.4,30.17,NNE,15,3.9,7.5,50,0.00,,,0.18,WUHU216HW,2013-05-23 23:35:00,
2013-05-23 18:45:00,54.5,36.2,30.17,NNE,30,5.7,7.5,50,0.00,,,0.18,WUHU216HW,2013-05-23 23:45:00,
2013-05-23 18:55:00,54.1,40.6,30.17,ENE,66,6.7,9.4,60,0.00,,,0.18,WUHU216HW,2013-05-23 23:55:00,
2013-05-23 19:05:00,53.2,41.0,30.18,ENE,76,6.1,7.8,63,0.00,,,0.18,WUHU216HW,2013-05-24 00:05:00,
2013-05-23 19:15:00,52.7,41.4,30.18,East,83,4.7,7.8,65,0.00,,,0.18,WUHU216HW,2013-05-24 00:15:00,
2013-05-23 19:25:00,52.2,41.3,30.18,ENE,78,5.1,8.3,66,0.00,,,0.18,WUHU216HW,2013-05-24 00:25:00,
2013-05-23 19:35:00,51.1,41.0,30.18,East,91,4.9,7.8,68,0.00,,,0.18,WUHU216HW,2013-05-24 00:35:00,
2013-05-23 19:45:00,50.4,40.3,30.19,ENE,75,3.9,8.3,68,0.00,,,0.18,WUHU216HW,2013-05-24 00:45:00,
2013-05-23 19:55:00,49.5,39.9,30.19,East,85,3.9,6.6,69,0.00,,,0.18,WUHU216HW,2013-05-24 00:55:00,
2013-05-23 20:06:00,48.6,39.4,30.19,East,101,1.6,2.2,70,0.00,,,0.18,WUHU216HW,2013-05-24 01:06:00,
2013-05-23 20:16:00,47.5,39.0,30.20,ESE,115,1.1,1.8,72,0.00,,,0.18,WUHU216HW,2013-05-24 01:16:00,
2013-05-23 20:26:00,46.4,38.3,30.20,East,79,2.7,5.0,73,0.00,,,0.18,WUHU216HW,2013-05-24 01:26:00,
2013-05-23 20:36:00,45.9,37.8,30.20,ENE,68,3.6,5.5,73,0.00,,,0.18,WUHU216HW,2013-05-24 01:36:00,
2013-05-23 20:46:00,45.0,37.3,30.20,East,91,3.1,4.8,74,0.00,,,0.18,WUHU216HW,2013-05-24 01:46:00,
2013-05-23 20:56:00,44.4,37.0,30.21,East,85,3.3,6.4,75,0.00,,,0.18,WUHU216HW,2013-05-24 01:56:00,
2013-05-23 21:06:00,43.9,36.5,30.21,East,84,3.9,7.0,75,0.00,,,0.18,WUHU216HW,2013-05-24 02:06:00,
2013-05-23 21:16:00,43.3,36.3,30.21,ENE,63,4.6,7.0,76,0.00,,,0.18,WUHU216HW,2013-05-24 02:16:00,
2013-05-23 21:26:00,42.8,36.1,30.22,ENE,77,4.8,6.4,77,0.00,,,0.18,WUHU216HW,2013-05-24 02:26:00,
2013-05-23 21:36:00,42.3,35.6,30.23,ENE,68,5.3,7.8,77,0.00,,,0.18,WUHU216HW,2013-05-24 02:36:00,
2013-05-23 21:46:00,41.7,35.4,30.23,ENE,71,4.7,6.1,78,0.00,,,0.18,WUHU216HW,2013-05-24 02:46:00,
2013-05-23 21:56:00,41.2,35.2,30.24,East,86,7.1,10.5,79,0.00,,,0.18,WUHU216HW,2013-05-24 02:56:00,
2013-05-23 22:06:00,41.0,35.0,30.24,ENE,60,7.0,9.4,79,0.00,,,0.18,WUHU216HW,2013-05-24 03:06:00,
2013-05-23 22:16:00,40.5,34.8,30.24,ENE,77,6.0,7.8,80,0.00,,,0.18,WUHU216HW,2013-05-24 03:16:00,
2013-05-23 22:26:00,40.1,34.1,30.25,ENE,59,6.1,8.3,79,0.00,,,0.18,WUHU216HW,2013-05-24 03:26:00,
2013-05-23 22:36:00,39.7,33.7,30.25,NE,55,5.4,9.4,79,0.00,,,0.18,WUHU216HW,2013-05-24 03:36:00,
2013-05-23 22:46:00,39.6,33.6,30.25,ENE,70,4.7,6.4,79,0.00,,,0.18,WUHU216HW,2013-05-24 03:46:00,
2013-05-23 22:56:00,39.2,33.3,30.25,ENE,62,5.4,6.4,79,0.00,,,0.18,WUHU216HW,2013-05-24 03:56:00,
2013-05-23 23:06:00,39.0,33.1,30.25,ENE,63,3.8,4.8,79,0.00,,,0.18,WUHU216HW,2013-05-24 04:06:00,
2013-05-23 23:16:00,38.8,32.9,30.26,NE,50,3.8,5.7,79,0.00,,,0.18,WUHU216HW,2013-05-24 04:16:00,
2013-05-23 23:26:00,38.7,33.1,30.26,NE,54,3.8,5.0,80,0.00,,,0.18,WUHU216HW,2013-05-24 04:26:00,
2013-05-23 23:36:00,38.5,33.2,30.26,NE,54,3.2,5.0,81,0.00,,,0.18,WUHU216HW,2013-05-24 04:36:00,
2013-05-23 23:46:00,38.3,32.7,30.27,ENE,57,3.4,4.1,80,0.00,,,0.18,WUHU216HW,2013-05-24 04:46:00,
2013-05-23 23:56:00,38.1,33.1,30.27,ENE,58,3.0,4.1,82,0.00,,,0.18,WUHU216HW,2013-05-24 04:56:00,